Time;durP1;ratioP1;P1;durP2;ratioP2;P2;SDS_P1;SDS_P2;PMS_P1;PMS_P2;Temp;Humidity;BMP_temperature;BMP_pressure;BME280_temperature;BME280_humidity;BME280_pressure;Samples;Min_cycle;Max_cycle;Signal;HPM_P1;HPM_P2
2023/05/16 00:00:52;;;;;;;;;6.33;6.33;;;;;-149.00;100.00;66333.84;5103066;27;48343;-73
2023/05/16 00:03:18;;;;;;;;;6.67;5.33;;;;;-149.00;100.00;66333.84;5103388;27;45333;-73
2023/05/16 00:05:44;;;;;;;;;7.00;7.00;;;;;-149.00;100.00;66333.84;5102915;27;45370;-73
2023/05/16 00:08:10;;;;;;;;;3.00;3.00;;;;;-149.00;100.00;66333.84;5103129;27;46040;-73
2023/05/16 00:10:36;;;;;;;;;6.67;5.67;;;;;-149.00;100.00;66333.84;5084255;27;45343;-73
2023/05/16 00:13:01;;;;;;;;;8.33;6.00;;;;;-149.00;100.00;66333.84;5084645;27;45418;-73
2023/05/16 00:15:28;;;;;;;;;8.00;7.00;;;;;-149.00;100.00;66333.84;5102809;27;45430;-73
2023/05/16 00:17:57;;;;;;;;;8.67;7.00;;;;;-149.00;100.00;66333.84;5102883;27;45315;-74
2023/05/16 00:20:23;;;;;;;;;6.33;6.33;;;;;-149.00;100.00;66333.84;5102864;27;45493;-74
2023/05/16 00:22:49;;;;;;;;;6.00;5.00;;;;;-149.00;100.00;66333.84;5102780;27;45365;-73
2023/05/16 00:25:14;;;;;;;;;6.33;6.33;;;;;-149.00;100.00;66333.84;5084281;27;47025;-73
2023/05/16 00:27:40;;;;;;;;;6.33;6.33;;;;;-149.00;100.00;66333.84;5102432;27;46144;-73
2023/05/16 00:30:06;;;;;;;;;5.00;5.00;;;;;-149.00;100.00;66333.84;5102610;27;45337;-73
2023/05/16 00:32:31;;;;;;;;;7.00;7.00;;;;;-149.00;100.00;66333.84;5084431;27;45372;-74
2023/05/16 00:34:57;;;;;;;;;7.00;6.00;;;;;-149.00;100.00;66333.84;5102360;27;45490;-73
2023/05/16 00:37:22;;;;;;;;;7.67;6.33;;;;;-149.00;100.00;66333.84;5102513;27;46190;-72
2023/05/16 00:39:47;;;;;;;;;6.00;5.33;;;;;-149.00;100.00;66333.84;5102471;27;45326;-73
2023/05/16 00:42:13;;;;;;;;;6.00;5.33;;;;;-149.00;100.00;66333.84;5102544;27;45381;-72
2023/05/16 00:44:38;;;;;;;;;6.33;4.33;;;;;-149.00;100.00;66333.84;5082993;27;46001;-74
2023/05/16 00:47:04;;;;;;;;;5.33;5.00;;;;;-149.00;100.00;66333.84;5102335;27;45309;-73
2023/05/16 00:49:29;;;;;;;;;5.00;5.00;;;;;-149.00;100.00;66333.84;5101113;27;45595;-74
2023/05/16 00:51:56;;;;;;;;;5.33;5.00;;;;;-149.00;100.00;66333.84;5102481;27;45525;-72
2023/05/16 00:54:24;;;;;;;;;5.33;4.00;;;;;-149.00;100.00;66333.84;5083796;27;47437;-73
2023/05/16 00:56:50;;;;;;;;;5.67;5.67;;;;;-149.00;100.00;66333.84;5102328;27;46114;-73
2023/05/16 00:59:15;;;;;;;;;8.33;6.33;;;;;-149.00;100.00;66333.84;5102038;27;45384;-73
2023/05/16 01:01:47;;;;;;;;;6.00;6.00;;;;;-149.00;100.00;66333.84;5102489;27;45649;-73
2023/05/16 01:04:13;;;;;;;;;6.00;6.00;;;;;-149.00;100.00;66333.84;5102250;27;45226;-73
2023/05/16 01:06:38;;;;;;;;;7.67;6.33;;;;;-149.00;100.00;66333.84;5100611;27;48429;-73
2023/05/16 01:09:04;;;;;;;;;11.00;8.00;;;;;-149.00;100.00;66333.84;5102129;27;45353;-73
2023/05/16 01:11:41;;;;;;;;;4.00;4.00;;;;;-149.00;100.00;66333.84;5102317;27;45299;-73
2023/05/16 01:14:43;;;;;;;;;6.00;5.33;;;;;-149.00;100.00;66333.84;5100440;27;46535;-73
2023/05/16 01:17:37;;;;;;;;;6.33;5.00;;;;;-149.00;100.00;66333.84;5101843;27;45282;-74
2023/05/16 01:20:23;;;;;;;;;4.33;4.33;;;;;-149.00;100.00;66333.84;5101945;27;45434;-73
2023/05/16 01:23:20;;;;;;;;;5.67;5.67;;;;;-149.00;100.00;66333.84;5102050;27;45359;-73
2023/05/16 01:26:07;;;;;;;;;6.67;5.00;;;;;-149.00;100.00;66333.84;5101883;27;45580;-73
2023/05/16 01:28:33;;;;;;;;;5.00;4.67;;;;;-149.00;100.00;66333.84;5101500;27;45607;-72
2023/05/16 01:30:59;;;;;;;;;5.00;4.00;;;;;-149.00;100.00;66333.84;5083347;27;45288;-73
2023/05/16 01:33:24;;;;;;;;;5.00;5.00;;;;;-149.00;100.00;66333.84;5101732;27;45263;-72
2023/05/16 01:36:01;;;;;;;;;4.00;4.00;;;;;-149.00;100.00;66333.84;5101426;27;45334;-73
2023/05/16 01:38:54;;;;;;;;;7.00;4.00;;;;;-149.00;100.00;66333.84;5075003;27;47871;-73
2023/05/16 01:41:26;;;;;;;;;5.00;4.67;;;;;-149.00;100.00;66333.84;5101196;27;45309;-73
2023/05/16 01:43:58;;;;;;;;;7.67;5.33;;;;;-149.00;100.00;66333.84;5101408;27;45325;-73
2023/05/16 01:46:28;;;;;;;;;4.00;4.00;;;;;-149.00;100.00;66333.84;5101546;27;45367;-73
2023/05/16 01:49:06;;;;;;;;;6.00;4.00;;;;;-149.00;100.00;66333.84;5101467;27;45367;-73
2023/05/16 01:51:34;;;;;;;;;4.00;4.00;;;;;-149.00;100.00;66333.84;5082889;27;45197;-73
2023/05/16 01:54:08;;;;;;;;;6.00;6.00;;;;;-149.00;100.00;66333.84;5101316;27;45351;-73
2023/05/16 01:56:36;;;;;;;;;4.00;3.00;;;;;-149.00;100.00;66333.84;5100844;27;45308;-73
2023/05/16 01:59:01;;;;;;;;;4.67;4.00;;;;;-149.00;100.00;66333.84;5082536;27;47620;-73
2023/05/16 02:01:29;;;;;;;;;4.33;4.33;;;;;-149.00;100.00;66333.84;5101008;27;45295;-73
2023/05/16 02:03:54;;;;;;;;;3.00;3.00;;;;;-149.00;100.00;66333.84;5101401;27;45325;-73
2023/05/16 02:06:19;;;;;;;;;5.33;5.00;;;;;-149.00;100.00;66333.84;5100672;27;55505;-72
2023/05/16 02:08:44;;;;;;;;;6.00;6.00;;;;;-149.00;100.00;66333.84;5082860;27;47215;-72
2023/05/16 02:11:10;;;;;;;;;4.33;4.33;;;;;-149.00;100.00;66333.84;5082190;27;56230;-73
2023/05/16 02:13:35;;;;;;;;;5.67;4.00;;;;;-149.00;100.00;66333.84;5100694;27;52288;-73
2023/05/16 02:16:01;;;;;;;;;3.00;3.00;;;;;-149.00;100.00;66333.84;5101221;27;45154;-72
2023/05/16 02:18:27;;;;;;;;;8.00;5.00;;;;;-149.00;100.00;66333.84;5082640;27;48031;-73
2023/05/16 02:20:52;;;;;;;;;4.00;4.00;;;;;-149.00;100.00;66333.84;5082428;27;45185;-73
2023/05/16 02:23:18;;;;;;;;;4.50;4.50;;;;;-149.00;100.00;66333.84;5100951;27;45616;-72
2023/05/16 02:25:43;;;;;;;;;4.33;3.33;;;;;-149.00;100.00;66333.84;5100740;27;51915;-73
2023/05/16 02:28:08;;;;;;;;;5.33;4.67;;;;;-149.00;100.00;66333.84;5081896;27;57751;-73
2023/05/16 02:30:34;;;;;;;;;5.00;4.33;;;;;-149.00;100.00;66333.84;5100650;27;45283;-73
2023/05/16 02:32:59;;;;;;;;;5.33;5.00;;;;;-149.00;100.00;66333.84;5101011;27;45470;-72
2023/05/16 02:35:25;;;;;;;;;8.00;6.33;;;;;-149.00;100.00;66333.84;5100434;27;45228;-73
2023/05/16 02:37:50;;;;;;;;;6.00;4.00;;;;;-149.00;100.00;66333.84;5100770;27;45307;-73
2023/05/16 02:40:15;;;;;;;;;3.67;3.67;;;;;-149.00;100.00;66333.84;5100467;27;45605;-73
2023/05/16 02:42:40;;;;;;;;;3.00;3.00;;;;;-149.00;100.00;66333.84;5100763;27;45308;-73
2023/05/16 02:45:06;;;;;;;;;5.00;4.00;;;;;-149.00;100.00;66333.84;5100283;27;54026;-72
2023/05/16 02:47:31;;;;;;;;;4.00;4.00;;;;;-149.00;100.00;66333.84;5100549;27;45296;-72
2023/05/16 02:49:57;;;;;;;;;4.67;4.00;;;;;-149.00;100.00;66333.84;5100402;27;48866;-73
2023/05/16 02:52:22;;;;;;;;;5.00;5.00;;;;;-149.00;100.00;66333.84;5100225;27;50626;-73
2023/05/16 02:54:47;;;;;;;;;5.67;5.67;;;;;-149.00;100.00;66333.84;5100467;27;46128;-73
2023/05/16 02:57:13;;;;;;;;;4.00;4.00;;;;;-149.00;100.00;66333.84;5100195;27;46098;-72
2023/05/16 02:59:38;;;;;;;;;8.00;6.67;;;;;-149.00;100.00;66333.84;5082098;27;45359;-72
2023/05/16 03:02:03;;;;;;;;;3.00;2.00;;;;;-149.00;100.00;66333.84;5100634;27;45306;-73
2023/05/16 03:04:29;;;;;;;;;5.33;4.00;;;;;-149.00;100.00;66333.84;5100388;27;45303;-73
2023/05/16 03:06:54;;;;;;;;;2.33;2.00;;;;;-149.00;100.00;66333.84;5081454;27;48175;-72
2023/05/16 03:09:20;;;;;;;;;3.33;3.33;;;;;-149.00;100.00;66333.84;5080841;27;45772;-74
2023/05/16 03:11:45;;;;;;;;;6.00;3.00;;;;;-149.00;100.00;66333.84;5100524;27;45245;-72
2023/05/16 03:14:11;;;;;;;;;3.00;3.00;;;;;-149.00;100.00;66333.84;5099936;27;45242;-73
2023/05/16 03:16:37;;;;;;;;;6.33;4.00;;;;;-149.00;100.00;66333.84;5081860;27;47026;-73
2023/05/16 03:19:03;;;;;;;;;4.67;3.67;;;;;-149.00;100.00;66333.84;5100267;27;45364;-72
2023/05/16 03:21:28;;;;;;;;;3.33;2.00;;;;;-149.00;100.00;66333.84;5081827;27;45308;-72
2023/05/16 03:23:54;;;;;;;;;4.67;4.00;;;;;-149.00;100.00;66333.84;5081275;27;46082;-73
2023/05/16 03:26:20;;;;;;;;;5.00;4.00;;;;;-149.00;100.00;66333.84;5081766;27;48095;-72
2023/05/16 03:28:45;;;;;;;;;8.33;5.67;;;;;-149.00;100.00;66333.84;5099892;27;45403;-73
2023/05/16 03:31:11;;;;;;;;;7.00;3.33;;;;;-149.00;100.00;66333.84;5099979;27;45316;-73
2023/05/16 03:33:36;;;;;;;;;3.67;3.67;;;;;-149.00;100.00;66333.84;5099986;27;45301;-72
2023/05/16 03:36:01;;;;;;;;;3.00;3.00;;;;;-149.00;100.00;66333.84;5099481;27;46267;-72
2023/05/16 03:38:27;;;;;;;;;5.00;3.67;;;;;-149.00;100.00;66333.84;5099790;27;45374;-72
2023/05/16 03:40:53;;;;;;;;;3.33;3.00;;;;;-149.00;100.00;66333.84;5100209;27;45282;-72
2023/05/16 03:43:18;;;;;;;;;4.33;4.00;;;;;-149.00;100.00;66333.84;5099572;27;45462;-72
2023/05/16 03:45:43;;;;;;;;;5.00;4.00;;;;;-149.00;100.00;66333.84;5099310;27;59381;-73
2023/05/16 03:48:09;;;;;;;;;6.67;5.00;;;;;-149.00;100.00;66333.84;5099890;27;45199;-73
2023/05/16 03:50:36;;;;;;;;;3.00;3.00;;;;;-149.00;100.00;66333.84;5099900;27;45342;-73
2023/05/16 03:53:03;;;;;;;;;4.33;4.33;;;;;-149.00;100.00;66333.84;5099657;27;45485;-72
2023/05/16 03:55:29;;;;;;;;;6.00;3.67;;;;;-149.00;100.00;66333.84;5099441;27;45376;-73
2023/05/16 03:57:55;;;;;;;;;3.00;3.00;;;;;-149.00;100.00;66333.84;5099600;27;45446;-72
2023/05/16 04:00:20;;;;;;;;;5.00;5.00;;;;;-149.00;100.00;66333.84;5081349;27;45421;-73
2023/05/16 04:02:45;;;;;;;;;2.67;2.67;;;;;-149.00;100.00;66333.84;5081241;27;47055;-73
2023/05/16 04:05:12;;;;;;;;;5.33;5.33;;;;;-149.00;100.00;66333.84;5099539;27;45957;-72
2023/05/16 04:07:38;;;;;;;;;3.00;3.00;;;;;-149.00;100.00;66333.84;5099665;27;45368;-72
2023/05/16 04:10:04;;;;;;;;;6.00;4.00;;;;;-149.00;100.00;66333.84;5099657;27;45331;-73
2023/05/16 04:12:29;;;;;;;;;4.00;4.00;;;;;-149.00;100.00;66333.84;5099388;27;45291;-72
2023/05/16 04:14:54;;;;;;;;;5.33;3.00;;;;;-149.00;100.00;66333.84;5099316;27;45439;-72
2023/05/16 04:17:20;;;;;;;;;3.33;2.33;;;;;-149.00;100.00;66333.84;5099476;27;45207;-72
2023/05/16 04:19:45;;;;;;;;;8.00;4.00;;;;;-149.00;100.00;66333.84;5100691;27;45397;-73
2023/05/16 04:22:10;;;;;;;;;3.00;3.00;;;;;-149.00;100.00;66333.84;5083965;27;62041;-72
2023/05/16 04:24:36;;;;;;;;;5.00;3.33;;;;;-149.00;100.00;66333.84;5102893;27;45400;-73
2023/05/16 04:27:01;;;;;;;;;4.33;3.33;;;;;-149.00;100.00;66333.84;5102732;27;45248;-72
2023/05/16 04:29:26;;;;;;;;;2.00;2.00;;;;;-149.00;100.00;66333.84;5084258;27;45331;-73
2023/05/16 04:31:52;;;;;;;;;4.33;4.00;;;;;-149.00;100.00;66333.84;5102748;27;45895;-72
2023/05/16 04:34:17;;;;;;;;;6.33;6.00;;;;;-149.00;100.00;66333.84;5102703;27;46033;-73
2023/05/16 04:36:43;;;;;;;;;3.00;3.00;;;;;-149.00;100.00;66333.84;5085060;27;45836;-72
2023/05/16 04:39:08;;;;;;;;;7.00;5.00;;;;;-149.00;100.00;66333.84;5090511;27;45473;-73
2023/05/16 04:41:34;;;;;;;;;6.67;4.67;;;;;-149.00;100.00;66333.84;5102646;27;45506;-73
2023/05/16 04:44:03;;;;;;;;;4.67;4.00;;;;;-149.00;100.00;66333.84;5102068;27;45332;-73
2023/05/16 04:46:29;;;;;;;;;6.00;5.33;;;;;-149.00;100.00;66333.84;5098242;27;46074;-72
2023/05/16 04:48:54;;;;;;;;;6.00;6.00;;;;;-149.00;100.00;66333.84;5093357;27;45457;-72
2023/05/16 04:51:20;;;;;;;;;3.33;3.00;;;;;-149.00;100.00;66333.84;5097640;27;45294;-72
2023/05/16 04:53:46;;;;;;;;;5.00;4.00;;;;;-149.00;100.00;66333.84;5102378;27;45933;-72
2023/05/16 04:56:11;;;;;;;;;5.33;4.00;;;;;-149.00;100.00;66333.84;5102400;27;45237;-72
2023/05/16 04:58:36;;;;;;;;;4.33;4.33;;;;;-149.00;100.00;66333.84;5102414;27;45225;-72
2023/05/16 05:01:02;;;;;;;;;5.00;5.00;;;;;-149.00;100.00;66333.84;5102074;27;52834;-72
2023/05/16 05:03:27;;;;;;;;;6.00;4.33;;;;;-149.00;100.00;66333.84;5102145;27;45227;-72
2023/05/16 05:05:53;;;;;;;;;4.67;3.33;;;;;-149.00;100.00;66333.84;5102039;27;45426;-74
2023/05/16 05:08:18;;;;;;;;;3.33;3.33;;;;;-149.00;100.00;66333.84;5102444;27;45369;-72
2023/05/16 05:10:43;;;;;;;;;4.00;4.00;;;;;-149.00;100.00;66333.84;5083633;27;46438;-73
2023/05/16 05:13:10;;;;;;;;;4.33;4.33;;;;;-149.00;100.00;66333.84;5101974;27;45463;-73
2023/05/16 05:15:35;;;;;;;;;5.33;4.00;;;;;-149.00;100.00;66333.84;5102040;27;45275;-72
2023/05/16 05:18:01;;;;;;;;;5.00;5.00;;;;;-149.00;100.00;66333.84;5101917;27;45656;-72
2023/05/16 05:20:26;;;;;;;;;8.33;7.00;;;;;-149.00;100.00;66333.84;5083305;27;47412;-72
2023/05/16 05:22:51;;;;;;;;;4.00;3.00;;;;;-149.00;100.00;66333.84;5101907;27;46069;-72
2023/05/16 05:25:17;;;;;;;;;5.67;4.33;;;;;-149.00;100.00;66333.84;5101784;27;48166;-72
2023/05/16 05:27:42;;;;;;;;;4.67;4.67;;;;;-149.00;100.00;66333.84;5101874;27;45272;-72
2023/05/16 05:30:08;;;;;;;;;8.00;3.67;;;;;-149.00;100.00;66333.84;5083240;27;45968;-73
2023/05/16 05:32:33;;;;;;;;;5.67;4.33;;;;;-149.00;100.00;66333.84;5082254;27;47294;-72
2023/05/16 05:34:58;;;;;;;;;5.00;3.00;;;;;-149.00;100.00;66333.84;5083042;27;51401;-72
2023/05/16 05:37:25;;;;;;;;;6.00;3.67;;;;;-149.00;100.00;66333.84;5101848;27;45358;-72
2023/05/16 05:39:50;;;;;;;;;4.33;3.33;;;;;-149.00;100.00;66333.84;5096505;27;45308;-71
2023/05/16 05:42:16;;;;;;;;;8.00;4.67;;;;;-149.00;100.00;66333.84;5085049;27;47617;-72
2023/05/16 05:44:41;;;;;;;;;4.00;4.00;;;;;-149.00;100.00;66333.84;5101365;27;45495;-72
2023/05/16 05:47:07;;;;;;;;;5.67;4.33;;;;;-149.00;100.00;66333.84;5100873;27;45471;-72
2023/05/16 05:49:33;;;;;;;;;3.00;3.00;;;;;-149.00;100.00;66333.84;5082451;27;46450;-72
2023/05/16 05:51:58;;;;;;;;;5.00;5.00;;;;;-149.00;100.00;66333.84;5100065;27;45346;-72
2023/05/16 05:54:24;;;;;;;;;4.00;4.00;;;;;-149.00;100.00;66333.84;5082435;27;45418;-72
2023/05/16 05:56:49;;;;;;;;;4.00;4.00;;;;;-149.00;100.00;66333.84;5082612;27;45430;-71
2023/05/16 05:59:15;;;;;;;;;5.00;5.00;;;;;-149.00;100.00;66333.84;5099464;27;45561;-71
2023/05/16 06:01:41;;;;;;;;;3.00;3.00;;;;;-149.00;100.00;66333.84;5098938;27;45330;-72
2023/05/16 06:04:06;;;;;;;;;4.00;3.67;;;;;-149.00;100.00;66333.84;5098928;27;45390;-72
2023/05/16 06:06:31;;;;;;;;;6.00;4.67;;;;;-149.00;100.00;66333.84;5082543;27;45382;-72
2023/05/16 06:08:57;;;;;;;;;5.00;4.33;;;;;-149.00;100.00;66333.84;5100912;27;45258;-72
2023/05/16 06:11:24;;;;;;;;;5.67;3.00;;;;;-149.00;100.00;66333.84;5101198;27;45417;-72
2023/05/16 06:13:49;;;;;;;;;5.67;5.67;;;;;-149.00;100.00;66333.84;5100836;27;45366;-72
2023/05/16 06:16:15;;;;;;;;;6.00;4.33;;;;;-149.00;100.00;66333.84;5082547;27;45400;-72
2023/05/16 06:18:41;;;;;;;;;5.33;4.00;;;;;-149.00;100.00;66333.84;5101190;27;45368;-72
2023/05/16 06:21:06;;;;;;;;;4.67;4.67;;;;;-149.00;100.00;66333.84;5082520;27;47961;-72
2023/05/16 06:23:32;;;;;;;;;5.00;3.33;;;;;-149.00;100.00;66333.84;5092095;27;45185;-72
2023/05/16 06:25:57;;;;;;;;;4.33;3.00;;;;;-149.00;100.00;66333.84;5080758;28;45703;-71
2023/05/16 06:28:23;;;;;;;;;4.00;4.00;;;;;-149.00;100.00;66333.84;5080660;27;54512;-72
2023/05/16 06:30:50;;;;;;;;;4.33;4.00;;;;;-149.00;100.00;66333.84;5100831;27;45290;-72
2023/05/16 06:33:15;;;;;;;;;6.00;5.33;;;;;-149.00;100.00;66333.84;5082373;27;45395;-72
2023/05/16 06:35:41;;;;;;;;;0.33;0.00;;;;;-149.00;100.00;66333.84;5082306;27;45373;-72
2023/05/16 06:38:06;;;;;;;;;6.00;4.67;;;;;-149.00;100.00;66333.84;5082409;27;46317;-72
2023/05/16 06:40:31;;;;;;;;;5.00;3.67;;;;;-149.00;100.00;66333.84;5100045;27;52151;-72
2023/05/16 06:42:57;;;;;;;;;5.00;4.00;;;;;-149.00;100.00;66333.84;5100328;27;45330;-72
2023/05/16 06:45:23;;;;;;;;;5.00;4.00;;;;;-149.00;100.00;66333.84;5100840;27;45308;-73
2023/05/16 06:47:48;;;;;;;;;1.00;1.00;;;;;-149.00;100.00;66333.84;5100759;27;45345;-73
2023/05/16 06:50:13;;;;;;;;;4.33;3.33;;;;;-149.00;100.00;66333.84;5082410;27;47110;-75
2023/05/16 06:52:39;;;;;;;;;3.33;3.33;;;;;-149.00;100.00;66333.84;5096359;27;45357;-76
2023/05/16 06:55:04;;;;;;;;;5.00;4.67;;;;;-149.00;100.00;66333.84;5093166;27;45271;-75
2023/05/16 06:57:30;;;;;;;;;5.33;4.00;;;;;-149.00;100.00;66333.84;5099885;27;45495;-74
2023/05/16 06:59:55;;;;;;;;;2.33;2.33;;;;;-149.00;100.00;66333.84;5099299;27;57886;-75
2023/05/16 07:02:20;;;;;;;;;5.33;3.67;;;;;-149.00;100.00;66333.84;5080529;27;45723;-75
2023/05/16 07:04:46;;;;;;;;;6.00;4.00;;;;;-149.00;100.00;66333.84;5100036;27;51780;-75
2023/05/16 07:07:12;;;;;;;;;3.00;3.00;;;;;-149.00;100.00;66333.84;5100135;27;45473;-76
2023/05/16 07:09:38;;;;;;;;;4.00;3.00;;;;;-149.00;100.00;66333.84;5100173;27;45302;-76
2023/05/16 07:12:04;;;;;;;;;5.00;5.00;;;;;-149.00;100.00;66333.84;5099863;27;45345;-75
2023/05/16 07:14:29;;;;;;;;;7.00;5.67;;;;;-149.00;100.00;66333.84;5100232;27;45358;-75
2023/05/16 07:16:54;;;;;;;;;4.33;4.33;;;;;-149.00;100.00;66333.84;5099844;27;48997;-75
2023/05/16 07:19:19;;;;;;;;;2.67;2.00;;;;;-149.00;100.00;66333.84;5100228;27;45417;-75
2023/05/16 07:21:45;;;;;;;;;4.00;4.00;;;;;-149.00;100.00;66333.84;5097501;27;45493;-75
2023/05/16 07:24:10;;;;;;;;;4.00;4.00;;;;;-149.00;100.00;66333.84;5098963;27;45621;-76
2023/05/16 07:26:35;;;;;;;;;3.00;3.00;;;;;-149.00;100.00;66333.84;5099716;27;45527;-76
2023/05/16 07:29:03;;;;;;;;;4.33;3.67;;;;;-149.00;100.00;66333.84;5099400;27;56874;-76
2023/05/16 07:31:28;;;;;;;;;4.00;3.00;;;;;-149.00;100.00;66333.84;5080803;27;45496;-76
2023/05/16 07:33:53;;;;;;;;;2.67;2.67;;;;;-149.00;100.00;66333.84;5081396;27;45527;-75
2023/05/16 07:36:20;;;;;;;;;3.67;3.67;;;;;-149.00;100.00;66333.84;5099300;27;56392;-75
2023/05/16 07:38:45;;;;;;;;;5.00;3.67;;;;;-149.00;100.00;66333.84;5099723;27;45964;-75
2023/05/16 07:41:10;;;;;;;;;3.67;3.67;;;;;-149.00;100.00;66333.84;5099958;27;45441;-75
2023/05/16 07:43:36;;;;;;;;;5.00;4.00;;;;;-149.00;100.00;66333.84;5081589;27;45248;-75
2023/05/16 07:46:02;;;;;;;;;5.00;5.00;;;;;-149.00;100.00;66333.84;5081242;27;50064;-76
2023/05/16 07:48:27;;;;;;;;;5.33;4.00;;;;;-149.00;100.00;66333.84;5099740;27;46115;-75
2023/05/16 07:50:54;;;;;;;;;3.67;3.67;;;;;-149.00;100.00;66333.84;5081168;27;45387;-75
2023/05/16 07:53:20;;;;;;;;;4.00;4.00;;;;;-149.00;100.00;66333.84;5081449;27;45378;-76
2023/05/16 07:55:45;;;;;;;;;2.33;2.33;;;;;-149.00;100.00;66333.84;5102343;27;45401;-75
2023/05/16 07:58:11;;;;;;;;;3.00;3.00;;;;;-149.00;100.00;66333.84;5103170;27;45295;-76
2023/05/16 08:00:36;;;;;;;;;2.67;2.67;;;;;-149.00;100.00;66333.84;5103278;27;45378;-77
2023/05/16 08:03:02;;;;;;;;;4.67;4.67;;;;;-149.00;100.00;66333.84;5084614;27;45434;-77
2023/05/16 08:05:27;;;;;;;;;2.00;2.00;;;;;-149.00;100.00;66333.84;5103163;27;45388;-75
2023/05/16 08:07:53;;;;;;;;;3.33;3.33;;;;;-149.00;100.00;66333.84;5103213;27;45341;-76
2023/05/16 08:10:18;;;;;;;;;2.33;1.67;;;;;-149.00;100.00;66333.84;5102917;27;54581;-76
2023/05/16 08:12:43;;;;;;;;;20.00;16.33;;;;;-149.00;100.00;66333.84;5084714;27;45228;-76
2023/05/16 08:15:09;;;;;;;;;21.33;16.00;;;;;-149.00;100.00;66333.84;5102896;27;45204;-76
2023/05/16 08:17:36;;;;;;;;;16.33;14.33;;;;;-149.00;100.00;66333.84;5102942;27;45371;-76
2023/05/16 08:20:01;;;;;;;;;57.25;44.25;;;;;-149.00;100.00;66333.84;5084334;27;46190;-75
2023/05/16 08:22:27;;;;;;;;;40.67;31.33;;;;;-149.00;100.00;66333.84;5102863;27;45290;-76
2023/05/16 08:24:56;;;;;;;;;3.33;3.33;;;;;-149.00;100.00;66333.84;5084459;27;46257;-74
2023/05/16 08:27:21;;;;;;;;;3.67;3.67;;;;;-149.00;100.00;66333.84;5102690;27;46062;-75
2023/05/16 08:29:47;;;;;;;;;3.67;2.67;;;;;-149.00;100.00;66333.84;5102756;27;45312;-76
2023/05/16 08:32:12;;;;;;;;;3.00;3.00;;;;;-149.00;100.00;66333.84;5102465;27;53644;-76
2023/05/16 08:34:37;;;;;;;;;2.67;2.33;;;;;-149.00;100.00;66333.84;5102641;27;45343;-75
2023/05/16 08:37:03;;;;;;;;;3.67;3.00;;;;;-149.00;100.00;66333.84;5102578;27;45335;-75
2023/05/16 08:39:29;;;;;;;;;2.00;2.00;;;;;-149.00;100.00;66333.84;5102436;27;45323;-75
2023/05/16 08:41:55;;;;;;;;;4.00;4.00;;;;;-149.00;100.00;66333.84;5102744;27;45234;-75
2023/05/16 08:44:20;;;;;;;;;4.00;2.33;;;;;-149.00;100.00;66333.84;5102523;27;45197;-75
2023/05/16 08:46:51;;;;;;;;;2.33;2.00;;;;;-149.00;100.00;66333.84;5102602;27;46333;-75
2023/05/16 08:49:17;;;;;;;;;12.33;10.00;;;;;-149.00;100.00;66333.84;5083230;27;45939;-75
2023/05/16 08:51:45;;;;;;;;;31.67;25.67;;;;;-149.00;100.00;66333.84;5084126;27;45316;-74
2023/05/16 08:54:12;;;;;;;;;16.67;15.67;;;;;-149.00;100.00;66333.84;5102366;27;45186;-75
2023/05/16 08:56:39;;;;;;;;;2.33;2.33;;;;;-149.00;100.00;66333.84;5083910;27;47501;-76
2023/05/16 08:59:05;;;;;;;;;2.33;2.33;;;;;-149.00;100.00;66333.84;5102121;27;45383;-75
2023/05/16 09:01:31;;;;;;;;;2.67;2.00;;;;;-149.00;100.00;66333.84;5102460;27;45309;-74
2023/05/16 09:03:57;;;;;;;;;2.33;2.33;;;;;-149.00;100.00;66333.84;5083896;27;46444;-75
2023/05/16 09:06:22;;;;;;;;;3.00;2.33;;;;;-149.00;100.00;66333.84;5082142;27;47090;-75
2023/05/16 09:08:48;;;;;;;;;3.00;3.00;;;;;-149.00;100.00;66333.84;5101930;27;53691;-76
2023/05/16 09:11:13;;;;;;;;;1.67;1.67;;;;;-149.00;100.00;66333.84;5102423;27;45204;-76
2023/05/16 09:13:39;;;;;;;;;3.33;1.00;;;;;-149.00;100.00;66333.84;5101944;27;45496;-76
2023/05/16 09:16:17;;;;;;;;;1.33;1.33;;;;;-149.00;100.00;66333.84;5101662;27;58537;-75
2023/05/16 09:18:53;;;;;;;;;1.33;1.33;;;;;-149.00;100.00;66333.84;5083836;27;45272;-75
2023/05/16 09:21:18;;;;;;;;;3.67;1.67;;;;;-149.00;100.00;66333.84;5102009;27;45455;-76
2023/05/16 09:23:43;;;;;;;;;2.00;2.00;;;;;-149.00;100.00;66333.84;5101618;27;45264;-75
2023/05/16 09:26:09;;;;;;;;;2.00;2.00;;;;;-149.00;100.00;66333.84;5100749;27;46065;-76
2023/05/16 09:28:36;;;;;;;;;1.67;1.67;;;;;-149.00;100.00;66333.84;5083255;27;45282;-76
2023/05/16 09:31:02;;;;;;;;;5.00;2.33;;;;;-149.00;100.00;66333.84;5102122;27;45327;-75
2023/05/16 09:33:28;;;;;;;;;2.33;2.33;;;;;-149.00;100.00;66333.84;5101732;27;45485;-76
2023/05/16 09:35:58;;;;;;;;;3.33;3.00;;;;;-149.00;100.00;66333.84;5101484;27;46017;-76
2023/05/16 09:38:25;;;;;;;;;3.67;3.33;;;;;-149.00;100.00;66333.84;5101575;27;45416;-76
2023/05/16 09:40:50;;;;;;;;;2.33;2.33;;;;;-149.00;100.00;66333.84;5101850;27;45261;-76
2023/05/16 09:43:16;;;;;;;;;1.00;1.00;;;;;-149.00;100.00;66333.84;5080857;27;46376;-75
2023/05/16 09:45:46;;;;;;;;;0.33;0.33;;;;;-149.00;100.00;66333.84;5081279;28;45392;-75
2023/05/16 09:48:13;;;;;;;;;1.00;1.00;;;;;-149.00;100.00;66333.84;5080027;28;46139;-75
2023/05/16 09:50:38;;;;;;;;;2.67;1.67;;;;;-149.00;100.00;66333.84;5062469;28;45481;-76
2023/05/16 09:53:04;;;;;;;;;1.33;1.00;;;;;-149.00;100.00;66333.84;5080892;28;45417;-76
2023/05/16 09:55:31;;;;;;;;;3.00;2.00;;;;;-149.00;100.00;66333.84;5079478;28;48560;-77
2023/05/16 09:57:56;;;;;;;;;0.33;0.00;;;;;-149.00;100.00;66333.84;5061283;28;45544;-76
2023/05/16 10:00:27;;;;;;;;;0.00;0.00;;;;;-149.00;100.00;66333.84;5078919;27;45515;-77
2023/05/16 10:02:56;;;;;;;;;0.33;0.33;;;;;-149.00;100.00;66333.84;5082503;27;47608;-78
2023/05/16 10:05:26;;;;;;;;;1.67;1.00;;;;;-149.00;100.00;66333.84;5101016;27;46316;-76
2023/05/16 10:07:55;;;;;;;;;2.00;2.00;;;;;-149.00;100.00;66333.84;5082965;27;45250;-76
2023/05/16 10:10:21;;;;;;;;;1.67;0.67;;;;;-149.00;100.00;66333.84;5101421;27;45368;-77
2023/05/16 10:12:47;;;;;;;;;1.33;1.00;;;;;-149.00;100.00;66333.84;5100981;27;45416;-76
2023/05/16 10:15:14;;;;;;;;;0.67;0.67;;;;;-149.00;100.00;66333.84;5082759;27;48188;-77
2023/05/16 10:17:42;;;;;;;;;0.33;0.33;;;;;-149.00;100.00;66333.84;5100743;27;45181;-76
2023/05/16 10:20:10;;;;;;;;;1.67;1.67;;;;;-149.00;100.00;66333.84;5101056;27;45272;-75
2023/05/16 10:22:41;;;;;;;;;1.00;1.00;;;;;-149.00;100.00;66333.84;5100922;27;45484;-75
2023/05/16 10:25:11;;;;;;;;;2.00;2.00;;;;;-149.00;100.00;66333.84;5100988;27;45349;-76
2023/05/16 10:27:39;;;;;;;;;1.00;1.00;;;;;-149.00;100.00;66333.84;5082300;27;45396;-76
2023/05/16 10:30:05;;;;;;;;;1.00;1.00;;;;;-149.00;100.00;66333.84;5100797;27;45519;-76
2023/05/16 10:32:31;;;;;;;;;1.33;1.33;;;;;-149.00;100.00;66333.84;5100644;27;45225;-76
2023/05/16 10:35:00;;;;;;;;;2.00;2.00;;;;;-149.00;100.00;66333.84;5097794;27;46227;-77
2023/05/16 10:37:26;;;;;;;;;2.00;1.67;;;;;-149.00;100.00;66333.84;5099152;27;45397;-78
2023/05/16 10:39:52;;;;;;;;;1.00;1.00;;;;;-149.00;100.00;66333.84;5098811;27;45440;-76
2023/05/16 10:42:19;;;;;;;;;3.00;2.00;;;;;-149.00;100.00;66333.84;5090618;27;45460;-77
2023/05/16 10:44:44;;;;;;;;;2.33;0.67;;;;;-149.00;100.00;66333.84;5092149;27;45400;-75
2023/05/16 10:47:10;;;;;;;;;3.00;1.33;;;;;-149.00;100.00;66333.84;5096992;27;48982;-75
2023/05/16 10:49:40;;;;;;;;;0.00;0.00;;;;;-149.00;100.00;66333.84;5098422;27;45382;-76
2023/05/16 10:52:10;;;;;;;;;2.00;2.00;;;;;-149.00;100.00;66333.84;5080650;27;47074;-76
2023/05/16 10:54:50;;;;;;;;;1.00;1.00;;;;;-149.00;100.00;66333.84;5099318;27;45279;-76
2023/05/16 10:57:21;;;;;;;;;3.00;0.00;;;;;-149.00;100.00;66333.84;5079104;27;45387;-76
2023/05/16 10:59:48;;;;;;;;;2.00;1.00;;;;;-149.00;100.00;66333.84;5099195;27;45439;-77
2023/05/16 11:02:21;;;;;;;;;0.00;0.00;;;;;-149.00;100.00;66333.84;5095317;27;45454;-75
2023/05/16 11:04:51;;;;;;;;;1.00;1.00;;;;;-149.00;100.00;66333.84;5080794;27;47377;-75
2023/05/16 11:07:18;;;;;;;;;3.00;1.00;;;;;-149.00;100.00;66333.84;5099759;27;45411;-75